createdAt,value
2023-03-12T00:00:39.680Z,3.20
2023-03-12T00:03:41.308Z,2.50
2023-03-12T00:06:42.937Z,2.22
2023-03-12T00:09:44.576Z,2.92
2023-03-12T00:12:46.357Z,2.80
2023-03-12T00:15:47.996Z,2.70
2023-03-12T00:18:50.686Z,2.63
2023-03-12T00:21:52.304Z,2.90
2023-03-12T00:24:55.126Z,2.65
2023-03-12T00:27:56.790Z,2.85
2023-03-12T00:30:58.520Z,2.60
2023-03-12T00:34:01.124Z,2.40
2023-03-12T00:37:02.777Z,2.67
2023-03-12T00:40:05.781Z,2.33
2023-03-12T00:43:07.468Z,2.33
2023-03-12T00:46:12.241Z,2.03
2023-03-12T00:49:13.845Z,2.30
2023-03-12T00:52:16.348Z,2.25
2023-03-12T00:55:18.138Z,2.63
2023-03-12T00:58:19.812Z,2.10
2023-03-12T01:01:21.952Z,6.60
2023-03-12T01:04:24.137Z,2.08
2023-03-12T01:07:25.896Z,2.38
2023-03-12T01:10:27.606Z,3.17
2023-03-12T01:13:29.304Z,2.35
2023-03-12T01:16:31.145Z,2.58
2023-03-12T01:19:32.828Z,2.87
2023-03-12T01:22:35.064Z,2.70
2023-03-12T01:25:36.830Z,2.63
2023-03-12T01:28:38.502Z,2.47
2023-03-12T01:31:40.218Z,2.70
2023-03-12T01:34:42.014Z,2.50
2023-03-12T01:37:44.177Z,2.83
2023-03-12T01:40:45.896Z,2.85
2023-03-12T01:43:47.788Z,2.67
2023-03-12T01:46:49.736Z,2.40
2023-03-12T01:49:55.528Z,3.08
2023-03-12T01:52:57.164Z,2.70
2023-03-12T01:55:59.382Z,2.83
2023-03-12T01:59:03.921Z,2.80
2023-03-12T02:02:05.717Z,2.90
2023-03-12T02:05:29.831Z,2.95
2023-03-12T02:08:31.586Z,2.78
2023-03-12T02:11:33.244Z,2.63
2023-03-12T02:14:35.005Z,2.70
2023-03-12T02:17:37.077Z,2.63
2023-03-12T02:20:56.803Z,2.75
2023-03-12T02:24:27.634Z,2.95
2023-03-12T02:27:31.635Z,2.50
2023-03-12T02:30:34.004Z,3.40
2023-03-12T02:33:35.728Z,3.08
2023-03-12T02:36:37.448Z,2.72
2023-03-12T02:39:39.374Z,2.60
2023-03-12T02:42:41.019Z,3.28
2023-03-12T02:45:42.738Z,2.88
2023-03-12T02:48:44.401Z,2.70
2023-03-12T02:51:46.324Z,2.78
2023-03-12T02:54:48.002Z,2.92
2023-03-12T02:57:49.920Z,2.60
2023-03-12T03:00:51.572Z,2.95
2023-03-12T03:03:53.275Z,3.33
2023-03-12T03:06:54.967Z,2.83
2023-03-12T03:09:56.626Z,2.13
2023-03-12T03:12:58.342Z,2.78
2023-03-12T03:16:00.653Z,2.90
2023-03-12T03:19:03.238Z,2.75
2023-03-12T03:22:05.474Z,2.53
2023-03-12T03:25:07.815Z,2.72
2023-03-12T03:28:09.488Z,2.80
2023-03-12T03:31:11.324Z,2.97
2023-03-12T03:34:15.050Z,2.55
2023-03-12T03:37:16.840Z,2.63
2023-03-12T03:40:19.017Z,2.28
2023-03-12T03:43:20.885Z,3.10
2023-03-12T03:46:22.799Z,2.78
2023-03-12T03:49:30.538Z,2.60
2023-03-12T03:52:32.423Z,2.40
2023-03-12T03:55:38.267Z,2.97
2023-03-12T03:58:40.222Z,2.80
2023-03-12T04:01:42.002Z,3.22
2023-03-12T04:04:43.705Z,2.93
2023-03-12T04:07:45.590Z,2.80
2023-03-12T04:10:48.677Z,3.13
2023-03-12T04:13:50.629Z,3.00
2023-03-12T04:16:55.389Z,3.20
2023-03-12T04:20:00.391Z,3.07
2023-03-12T04:23:02.147Z,3.47
2023-03-12T04:26:04.499Z,2.97
2023-03-12T04:29:06.264Z,3.20
2023-03-12T04:32:08.497Z,2.88
2023-03-12T04:35:11.273Z,3.65
2023-03-12T04:38:13.357Z,3.22
2023-03-12T04:41:15.344Z,3.00
2023-03-12T04:44:27.152Z,2.80
2023-03-12T04:47:30.820Z,3.15
2023-03-12T04:50:32.610Z,3.93
2023-03-12T04:53:34.521Z,3.47
2023-03-12T04:56:37.412Z,3.35
2023-03-12T04:59:39.254Z,3.03
2023-03-12T05:02:41.323Z,2.70
2023-03-12T05:05:43.167Z,3.08
2023-03-12T05:08:45.641Z,3.17
2023-03-12T05:11:47.644Z,2.45
2023-03-12T05:14:52.583Z,3.10
2023-03-12T05:17:54.952Z,2.75
2023-03-12T05:21:00.751Z,2.67
2023-03-12T05:24:02.754Z,3.45
2023-03-12T05:27:04.967Z,2.30
2023-03-12T05:30:07.515Z,2.72
2023-03-12T05:33:11.128Z,2.22
2023-03-12T05:36:13.362Z,2.72
2023-03-12T05:39:15.396Z,3.83
2023-03-12T05:42:17.730Z,2.83
2023-03-12T05:45:19.645Z,2.55
2023-03-12T05:48:24.957Z,2.70
2023-03-12T05:51:26.616Z,2.88
2023-03-12T05:54:28.260Z,3.33
2023-03-12T05:57:29.913Z,2.50
2023-03-12T06:00:32.481Z,2.43
2023-03-12T06:03:34.348Z,2.85
2023-03-12T06:06:36.325Z,2.30
2023-03-12T06:09:45.905Z,2.42
2023-03-12T06:12:48.651Z,2.45
2023-03-12T06:15:50.290Z,2.35
2023-03-12T06:19:00.282Z,2.30
2023-03-12T06:22:02.064Z,2.58
2023-03-12T06:25:04.546Z,1.95
2023-03-12T06:28:06.409Z,2.05
2023-03-12T06:31:08.143Z,4.07
2023-03-12T06:34:09.820Z,2.75
2023-03-12T06:37:11.494Z,3.07
2023-03-12T06:40:13.232Z,2.13
2023-03-12T06:43:14.874Z,1.83
2023-03-12T06:46:17.953Z,2.30
2023-03-12T06:49:19.616Z,2.17
2023-03-12T06:52:21.280Z,1.83
2023-03-12T06:55:22.958Z,2.38
2023-03-12T06:58:24.615Z,2.15
2023-03-12T07:01:26.273Z,1.98
2023-03-12T07:04:27.998Z,2.13
2023-03-12T07:07:29.645Z,1.83
2023-03-12T07:10:31.352Z,1.75
2023-03-12T07:13:33.035Z,1.10
2023-03-12T07:16:34.730Z,1.80
2023-03-12T07:19:36.432Z,1.77
2023-03-12T07:22:38.102Z,1.75
2023-03-12T07:25:40.540Z,1.70
2023-03-12T07:28:42.182Z,1.70
2023-03-12T07:31:43.936Z,2.15
2023-03-12T07:34:45.618Z,1.80
2023-03-12T07:37:47.479Z,2.13
2023-03-12T07:40:53.257Z,1.73
2023-03-12T07:43:54.965Z,1.80
2023-03-12T07:46:56.777Z,1.63
2023-03-12T07:49:58.575Z,2.20
2023-03-12T07:53:00.256Z,1.80
2023-03-12T07:56:02.067Z,2.63
2023-03-12T07:59:03.899Z,1.58
2023-03-12T08:02:05.701Z,2.25
2023-03-12T08:05:07.714Z,2.47
2023-03-12T08:08:09.531Z,1.55
2023-03-12T08:11:11.260Z,1.63
2023-03-12T08:14:12.944Z,1.70
2023-03-12T08:17:14.740Z,1.90
2023-03-12T08:20:16.464Z,1.88
2023-03-12T08:23:18.232Z,2.30
2023-03-12T08:26:19.891Z,1.60
2023-03-12T08:29:21.529Z,1.70
2023-03-12T08:32:23.288Z,1.65
2023-03-12T08:35:25.035Z,1.58
2023-03-12T08:38:26.701Z,2.47
2023-03-12T08:41:28.371Z,1.15
2023-03-12T08:44:30.063Z,3.93
2023-03-12T08:47:31.796Z,1.90
2023-03-12T08:50:33.464Z,2.08
2023-03-12T08:53:36.028Z,1.58
2023-03-12T08:56:37.669Z,1.47
2023-03-12T08:59:39.375Z,1.63
2023-03-12T09:02:41.506Z,1.70
2023-03-12T09:05:43.318Z,1.57
2023-03-12T09:08:45.067Z,1.35
2023-03-12T09:11:46.755Z,1.60
2023-03-12T09:15:03.007Z,1.80
2023-03-12T09:18:06.908Z,1.38
2023-03-12T09:21:08.561Z,1.38
2023-03-12T09:24:10.924Z,1.60
2023-03-12T09:27:12.569Z,1.67
2023-03-12T09:30:17.234Z,1.83
2023-03-12T09:33:18.900Z,2.25
2023-03-12T09:36:20.638Z,3.17
2023-03-12T09:39:22.282Z,3.37
2023-03-12T09:42:26.165Z,1.63
2023-03-12T09:45:30.794Z,2.00
2023-03-12T09:48:35.958Z,2.03
2023-03-12T09:51:43.033Z,2.53
2023-03-12T09:54:47.975Z,2.13
2023-03-12T09:57:50.159Z,2.93
2023-03-12T10:00:57.265Z,1.98
2023-03-12T10:04:07.376Z,2.10
2023-03-12T10:07:23.326Z,2.42
2023-03-12T10:10:46.821Z,2.10
2023-03-12T10:14:23.752Z,2.23
2023-03-12T10:18:04.216Z,1.92
2023-03-12T10:21:24.497Z,2.10
2023-03-12T10:24:40.137Z,2.25
2023-03-12T10:27:41.820Z,2.25
2023-03-12T10:30:48.472Z,2.15
2023-03-12T10:33:56.086Z,2.80
2023-03-12T10:37:12.866Z,2.30
2023-03-12T10:40:19.701Z,2.58
2023-03-12T10:43:21.572Z,2.50
2023-03-12T10:47:08.364Z,2.10
2023-03-12T10:50:18.732Z,2.13
2023-03-12T10:53:29.659Z,2.13
2023-03-12T10:56:31.607Z,2.03
2023-03-12T10:59:38.112Z,2.85
2023-03-12T11:02:56.627Z,2.40
2023-03-12T11:06:02.175Z,3.78
2023-03-12T11:09:17.073Z,2.08
2023-03-12T11:12:24.839Z,1.88
2023-03-12T11:15:30.366Z,2.72
2023-03-12T11:18:36.238Z,2.45
2023-03-12T11:21:40.995Z,4.05
2023-03-12T11:25:00.153Z,2.38
2023-03-12T11:28:01.883Z,2.60
2023-03-12T11:31:03.838Z,3.30
2023-03-12T11:34:07.270Z,3.13
2023-03-12T11:37:21.016Z,3.60
2023-03-12T11:40:53.360Z,4.60
2023-03-12T11:44:07.693Z,2.60
2023-03-12T11:47:37.069Z,2.45
2023-03-12T11:51:03.698Z,2.70
2023-03-12T11:54:37.453Z,2.40
2023-03-12T11:57:56.137Z,2.45
2023-03-12T12:01:11.760Z,2.80
2023-03-12T12:04:35.404Z,2.60
2023-03-12T12:08:21.532Z,2.63
2023-03-12T12:11:35.671Z,8.40
2023-03-12T12:14:37.251Z,2.93
2023-03-12T12:18:08.154Z,2.72
2023-03-12T12:21:12.504Z,2.80
2023-03-12T12:24:24.355Z,3.10
2023-03-12T12:27:29.788Z,3.55
2023-03-12T12:30:53.065Z,3.05
2023-03-12T12:34:17.458Z,3.30
2023-03-12T12:37:44.200Z,3.20
2023-03-12T12:40:55.992Z,3.83
2023-03-12T12:44:11.263Z,3.73
2023-03-12T12:47:14.088Z,3.47
2023-03-12T12:50:21.532Z,3.70
2023-03-12T12:53:36.461Z,3.00
2023-03-12T12:56:46.025Z,2.60
2023-03-12T13:00:01.943Z,2.67
2023-03-12T13:03:03.808Z,2.60
2023-03-12T13:06:06.377Z,2.47
2023-03-12T13:09:16.840Z,2.50
2023-03-12T13:12:57.145Z,2.30
2023-03-12T13:16:23.739Z,2.38
2023-03-12T13:19:26.488Z,2.23
2023-03-12T13:22:28.177Z,2.50
2023-03-12T13:25:41.882Z,2.80
2023-03-12T13:28:56.862Z,2.50
2023-03-12T13:31:58.832Z,2.63
2023-03-12T13:35:06.612Z,2.70
2023-03-12T13:38:12.417Z,2.35
2023-03-12T13:41:14.278Z,2.72
2023-03-12T13:44:29.355Z,3.30
2023-03-12T13:47:32.045Z,2.95
2023-03-12T13:50:41.962Z,2.60
2023-03-12T13:53:47.430Z,3.42
2023-03-12T13:56:57.872Z,3.17
2023-03-12T14:00:00.002Z,2.92
2023-03-12T14:03:09.619Z,3.08
2023-03-12T14:06:13.528Z,2.95
2023-03-12T14:09:15.616Z,3.40
2023-03-12T14:12:39.198Z,2.80
2023-03-12T14:15:46.828Z,2.67
2023-03-12T14:18:48.948Z,2.45
2023-03-12T14:21:51.136Z,3.60
2023-03-12T14:24:57.766Z,2.95
2023-03-12T14:28:00.189Z,3.20
2023-03-12T14:31:17.077Z,3.50
2023-03-12T14:34:26.109Z,3.53
2023-03-12T14:37:40.334Z,3.33
2023-03-12T14:40:55.459Z,3.05
2023-03-12T14:44:05.176Z,2.63
2023-03-12T14:47:08.703Z,3.08
2023-03-12T14:50:21.774Z,2.78
2023-03-12T14:53:27.241Z,2.75
2023-03-12T14:56:32.706Z,2.88
2023-03-12T14:59:34.987Z,3.90
2023-03-12T15:02:38.439Z,4.03
2023-03-12T15:05:47.998Z,3.88
2023-03-12T15:08:50.003Z,3.85
2023-03-12T15:12:07.948Z,3.70
2023-03-12T15:15:12.032Z,3.90
2023-03-12T15:18:28.470Z,4.00
2023-03-12T15:21:35.127Z,3.70
2023-03-12T15:24:40.160Z,4.18
2023-03-12T15:27:41.841Z,3.67
2023-03-12T15:30:44.263Z,3.80
2023-03-12T15:33:59.015Z,3.80
2023-03-12T15:37:02.000Z,4.50
2023-03-12T15:40:17.429Z,4.60
2023-03-12T15:43:20.906Z,4.38
2023-03-12T15:46:24.093Z,4.27
2023-03-12T15:49:28.663Z,4.45
2023-03-12T15:52:35.016Z,4.30
2023-03-12T15:55:37.396Z,4.10
2023-03-12T15:58:40.807Z,4.05
2023-03-12T16:01:53.032Z,3.88
2023-03-12T16:04:54.949Z,4.17
2023-03-12T16:07:57.592Z,3.97
2023-03-12T16:11:00.055Z,3.72
2023-03-12T16:14:03.663Z,3.72
2023-03-12T16:17:11.548Z,4.00
2023-03-12T16:20:15.029Z,3.80
2023-03-12T16:23:17.315Z,3.53
2023-03-12T16:26:20.588Z,3.10
2023-03-12T16:29:23.137Z,3.70
2023-03-12T16:32:26.141Z,3.80
2023-03-12T16:35:28.634Z,4.00
2023-03-12T16:38:32.388Z,3.30
2023-03-12T16:41:36.921Z,4.05
2023-03-12T16:44:38.990Z,4.43
2023-03-12T16:47:41.621Z,4.43
2023-03-12T16:50:48.636Z,3.70
2023-03-12T16:54:06.776Z,4.00
2023-03-12T16:57:16.984Z,6.75
2023-03-12T17:00:23.186Z,4.03
2023-03-12T17:03:36.831Z,4.22
2023-03-12T17:06:39.905Z,3.90
2023-03-12T17:09:42.332Z,4.35
2023-03-12T17:12:46.437Z,4.07
2023-03-12T17:15:50.919Z,3.97
2023-03-12T17:18:53.248Z,4.10
2023-03-12T17:21:55.134Z,4.80
2023-03-12T17:24:58.162Z,4.97
2023-03-12T17:28:00.854Z,5.15
2023-03-12T17:31:03.008Z,4.90
2023-03-12T17:34:05.608Z,4.43
2023-03-12T17:37:08.012Z,4.33
2023-03-12T17:40:12.789Z,4.65
2023-03-12T17:43:15.289Z,5.00
2023-03-12T17:46:17.829Z,4.50
2023-03-12T17:49:20.223Z,4.95
2023-03-12T17:52:23.152Z,5.47
2023-03-12T17:55:25.971Z,5.05
2023-03-12T17:58:28.577Z,4.55
2023-03-12T18:01:31.468Z,4.53
2023-03-12T18:04:34.288Z,4.65
2023-03-12T18:07:37.054Z,5.00
2023-03-12T18:10:39.790Z,5.03
2023-03-12T18:13:42.087Z,5.60
2023-03-12T18:16:44.718Z,4.82
2023-03-12T18:19:47.156Z,4.57
2023-03-12T18:22:49.735Z,5.00
2023-03-12T18:25:52.435Z,4.82
2023-03-12T18:28:55.084Z,5.23
2023-03-12T18:31:57.690Z,4.45
2023-03-12T18:34:59.880Z,5.57
2023-03-12T18:38:03.767Z,5.60
2023-03-12T18:41:07.291Z,5.33
2023-03-12T18:44:10.588Z,5.05
2023-03-12T18:47:13.687Z,5.70
2023-03-12T18:50:18.753Z,5.05
2023-03-12T18:53:22.877Z,4.30
2023-03-12T18:56:26.056Z,4.18
2023-03-12T18:59:32.209Z,4.05
2023-03-12T19:02:34.922Z,4.07
2023-03-12T19:05:37.317Z,4.30
2023-03-12T19:08:40.031Z,4.57
2023-03-12T19:11:42.670Z,4.32
2023-03-12T19:14:45.751Z,4.53
2023-03-12T19:17:48.561Z,4.18
2023-03-12T19:20:51.087Z,3.90
2023-03-12T19:23:53.965Z,8.77
2023-03-12T19:26:56.772Z,4.00
2023-03-12T19:29:59.511Z,3.80
2023-03-12T19:33:03.380Z,4.40
2023-03-12T19:36:05.835Z,4.05
2023-03-12T19:39:20.552Z,3.92
2023-03-12T19:42:24.175Z,4.32
2023-03-12T19:45:27.094Z,4.45
2023-03-12T19:48:32.746Z,4.60
2023-03-12T19:51:40.408Z,4.40
2023-03-12T19:54:49.093Z,4.53
2023-03-12T19:57:57.656Z,5.25
2023-03-12T20:01:02.958Z,5.18
2023-03-12T20:04:07.041Z,13.55
2023-03-12T20:07:09.677Z,8.60
2023-03-12T20:10:12.726Z,5.35
2023-03-12T20:13:15.541Z,5.57
2023-03-12T20:16:19.419Z,4.70
2023-03-12T20:19:22.350Z,5.07
2023-03-12T20:22:27.797Z,4.65
2023-03-12T20:25:31.219Z,4.80
2023-03-12T20:28:33.976Z,4.40
2023-03-12T20:31:37.135Z,3.80
2023-03-12T20:34:39.716Z,3.33
2023-03-12T20:37:42.163Z,3.05
2023-03-12T20:40:48.267Z,3.65
2023-03-12T20:43:55.994Z,2.40
2023-03-12T20:46:59.350Z,2.50
2023-03-12T20:50:01.759Z,1.60
2023-03-12T20:53:04.395Z,1.95
2023-03-12T20:56:07.214Z,2.33
2023-03-12T20:59:13.561Z,2.50
2023-03-12T21:02:16.325Z,1.80
2023-03-12T21:05:19.010Z,2.92
2023-03-12T21:08:21.065Z,2.58
2023-03-12T21:11:23.600Z,3.00
2023-03-12T21:14:27.066Z,3.60
2023-03-12T21:17:31.039Z,3.40
2023-03-12T21:20:34.579Z,3.78
2023-03-12T21:23:37.094Z,3.07
2023-03-12T21:26:39.176Z,2.55
2023-03-12T21:29:40.948Z,2.22
2023-03-12T21:32:42.617Z,3.08
2023-03-12T21:35:45.170Z,2.83
2023-03-12T21:38:47.012Z,3.00
2023-03-12T21:41:49.010Z,3.17
2023-03-12T21:44:51.006Z,3.47
2023-03-12T21:47:52.772Z,2.67
2023-03-12T21:50:54.576Z,3.03
2023-03-12T21:53:56.728Z,3.08
2023-03-12T21:57:00.944Z,2.70
2023-03-12T22:00:04.159Z,2.78
2023-03-12T22:03:05.944Z,2.90
2023-03-12T22:06:07.808Z,3.42
2023-03-12T22:09:09.476Z,2.70
2023-03-12T22:12:11.125Z,3.25
2023-03-12T22:15:12.772Z,2.90
2023-03-12T22:18:14.416Z,2.75
2023-03-12T22:21:20.554Z,3.00
2023-03-12T22:24:22.165Z,2.50
2023-03-12T22:27:23.830Z,2.50
2023-03-12T22:30:25.670Z,2.00
2023-03-12T22:33:27.592Z,3.00
2023-03-12T22:36:29.368Z,2.60
2023-03-12T22:39:30.996Z,2.65
2023-03-12T22:42:33.357Z,3.53
2023-03-12T22:45:35.075Z,2.20
2023-03-12T22:48:36.760Z,2.30
2023-03-12T22:51:38.452Z,1.95
2023-03-12T22:54:40.099Z,2.28
2023-03-12T22:57:41.768Z,2.00
2023-03-12T23:00:43.412Z,2.50
2023-03-12T23:03:45.320Z,2.03
2023-03-12T23:06:46.940Z,1.70
2023-03-12T23:09:48.600Z,1.73
2023-03-12T23:12:50.251Z,1.85
2023-03-12T23:15:52.034Z,2.08
2023-03-12T23:18:53.811Z,2.05
2023-03-12T23:21:55.450Z,2.63
2023-03-12T23:24:57.106Z,1.70
2023-03-12T23:27:58.745Z,1.85
2023-03-12T23:31:01.299Z,2.27
2023-03-12T23:34:02.992Z,2.10
2023-03-12T23:37:04.840Z,2.05
2023-03-12T23:40:07.320Z,2.10
2023-03-12T23:43:11.517Z,1.80
2023-03-12T23:46:13.464Z,1.85
2023-03-12T23:49:15.180Z,2.42
2023-03-12T23:52:19.665Z,2.30
2023-03-12T23:55:21.331Z,2.08
2023-03-12T23:58:23.880Z,1.80
